createdAt,value
2022-08-04T00:01:51.812Z,2.33
2022-08-04T00:04:31.609Z,2.35
2022-08-04T00:07:14.051Z,2.20
2022-08-04T00:09:55.710Z,3.20
2022-08-04T00:12:31.756Z,2.60
2022-08-04T00:15:10.468Z,2.70
2022-08-04T00:17:54.717Z,2.25
2022-08-04T00:20:29.029Z,1.90
2022-08-04T00:22:57.741Z,2.65
2022-08-04T00:25:25.508Z,2.75
2022-08-04T00:27:54.461Z,2.65
2022-08-04T00:30:21.840Z,2.10
2022-08-04T00:33:02.269Z,2.72
2022-08-04T00:35:36.190Z,2.45
2022-08-04T00:38:06.130Z,2.38
2022-08-04T00:40:48.854Z,2.50
2022-08-04T00:43:34.265Z,2.42
2022-08-04T00:46:19.962Z,2.60
2022-08-04T00:49:08.829Z,2.60
2022-08-04T00:51:36.085Z,2.38
2022-08-04T00:54:44.935Z,2.70
2022-08-04T00:57:43.563Z,3.05
2022-08-04T01:00:14.230Z,2.40
2022-08-04T01:02:53.332Z,2.70
2022-08-04T01:05:50.597Z,2.65
2022-08-04T01:08:53.112Z,2.42
2022-08-04T01:11:31.623Z,2.50
2022-08-04T01:14:18.005Z,2.63
2022-08-04T01:16:51.743Z,2.60
2022-08-04T01:20:07.765Z,3.00
2022-08-04T01:23:25.190Z,2.90
2022-08-04T01:26:43.134Z,2.80
2022-08-04T01:29:23.902Z,2.80
2022-08-04T01:32:07.266Z,2.70
2022-08-04T01:34:40.751Z,2.60
2022-08-04T01:37:31.675Z,2.28
2022-08-04T01:40:17.669Z,2.63
2022-08-04T01:42:47.689Z,2.90
2022-08-04T01:45:36.776Z,2.60
2022-08-04T01:48:06.841Z,2.67
2022-08-04T01:50:43.278Z,2.75
2022-08-04T01:53:16.401Z,3.10
2022-08-04T01:55:54.795Z,2.80
2022-08-04T01:58:25.280Z,2.30
2022-08-04T02:01:05.125Z,2.95
2022-08-04T02:04:19.911Z,2.80
2022-08-04T02:07:10.150Z,2.88
2022-08-04T02:09:53.949Z,2.60
2022-08-04T02:12:49.661Z,2.78
2022-08-04T02:15:22.847Z,3.42
2022-08-04T02:18:24.876Z,2.63
2022-08-04T02:20:59.703Z,2.70
2022-08-04T02:23:39.175Z,2.50
2022-08-04T02:26:22.746Z,2.90
2022-08-04T02:29:08.759Z,2.67
2022-08-04T02:31:46.253Z,2.90
2022-08-04T02:34:47.670Z,3.03
2022-08-04T02:37:17.647Z,2.70
2022-08-04T02:39:48.922Z,3.50
2022-08-04T02:42:24.512Z,3.22
2022-08-04T02:44:52.220Z,3.50
2022-08-04T02:48:28.905Z,3.35
2022-08-04T02:50:37.584Z,3.50
2022-08-04T02:53:08.834Z,3.13
2022-08-04T02:55:41.628Z,3.10
2022-08-04T02:58:23.185Z,3.05
2022-08-04T03:00:51.999Z,3.63
2022-08-04T03:03:44.746Z,3.13
2022-08-04T03:06:11.972Z,3.22
2022-08-04T03:09:08.332Z,3.20
2022-08-04T03:11:44.609Z,3.03
2022-08-04T03:14:36.814Z,3.30
2022-08-04T03:17:58.979Z,3.38
2022-08-04T03:20:41.352Z,3.55
2022-08-04T03:23:48.758Z,3.58
2022-08-04T03:26:26.201Z,3.40
2022-08-04T03:29:43.577Z,3.80
2022-08-04T03:32:22.873Z,3.03
2022-08-04T03:35:27.757Z,3.10
2022-08-04T03:38:22.841Z,3.78
2022-08-04T03:41:11.862Z,3.20
2022-08-04T03:44:03.189Z,3.42
2022-08-04T03:46:42.027Z,3.30
2022-08-04T03:49:40.770Z,4.38
2022-08-04T03:52:53.803Z,3.53
2022-08-04T03:55:33.780Z,3.92
2022-08-04T03:58:33.948Z,3.20
2022-08-04T04:01:18.232Z,3.10
2022-08-04T04:04:18.710Z,3.60
2022-08-04T04:07:21.536Z,2.90
2022-08-04T04:10:19.191Z,3.47
2022-08-04T04:13:09.748Z,3.50
2022-08-04T04:16:28.959Z,3.70
2022-08-04T04:19:12.230Z,3.13
2022-08-04T04:22:22.302Z,3.20
2022-08-04T04:25:06.165Z,3.30
2022-08-04T04:27:48.097Z,3.17
2022-08-04T04:30:22.508Z,3.55
2022-08-04T04:33:01.891Z,3.53
2022-08-04T04:38:34.425Z,3.10
2022-08-04T04:41:40.039Z,4.15
2022-08-04T04:44:53.780Z,3.35
2022-08-04T04:48:08.645Z,3.60
2022-08-04T04:51:11.994Z,4.18
2022-08-04T04:54:13.505Z,3.45
2022-08-04T04:57:09.762Z,3.20
2022-08-04T04:59:41.793Z,3.25
2022-08-04T05:02:08.944Z,3.85
2022-08-04T05:04:55.475Z,3.67
2022-08-04T05:08:43.492Z,3.50
2022-08-04T05:11:40.378Z,3.35
2022-08-04T05:14:37.122Z,3.60
2022-08-04T05:17:10.591Z,3.20
2022-08-04T05:20:01.404Z,3.92
2022-08-04T05:22:49.542Z,3.25
2022-08-04T05:25:23.620Z,3.38
2022-08-04T05:28:24.716Z,2.95
2022-08-04T05:30:59.117Z,3.17
2022-08-04T05:33:34.457Z,3.30
2022-08-04T05:36:21.057Z,3.53
2022-08-04T05:38:55.328Z,3.50
2022-08-04T05:41:22.805Z,3.05
2022-08-04T05:43:56.458Z,3.55
2022-08-04T05:46:25.847Z,3.20
2022-08-04T05:48:56.885Z,2.90
2022-08-04T05:51:29.413Z,2.67
2022-08-04T05:53:58.845Z,3.25
2022-08-04T05:56:26.589Z,3.38
2022-08-04T05:58:55.065Z,3.75
2022-08-04T06:01:55.353Z,2.95
2022-08-04T06:04:27.959Z,2.90
2022-08-04T06:06:55.793Z,3.20
2022-08-04T06:09:23.204Z,3.22
2022-08-04T06:12:00.988Z,2.90
2022-08-04T06:14:43.788Z,2.97
2022-08-04T06:19:57.589Z,3.00
2022-08-04T06:20:19.431Z,3.10
2022-08-04T06:23:03.869Z,3.05
2022-08-04T06:25:43.233Z,2.80
2022-08-04T06:28:11.714Z,2.63
2022-08-04T06:30:49.730Z,2.90
2022-08-04T06:33:54.301Z,3.45
2022-08-04T06:36:24.601Z,2.80
2022-08-04T06:38:58.415Z,3.15
2022-08-04T06:41:29.478Z,3.00
2022-08-04T06:44:03.309Z,3.00
2022-08-04T06:46:32.071Z,3.47
2022-08-04T06:48:59.414Z,2.97
2022-08-04T06:51:38.021Z,3.38
2022-08-04T06:54:12.492Z,3.17
2022-08-04T06:56:41.140Z,3.20
2022-08-04T06:59:11.025Z,2.60
2022-08-04T07:01:42.869Z,3.05
2022-08-04T07:06:46.778Z,3.28
2022-08-04T07:09:18.413Z,3.22
2022-08-04T07:11:47.238Z,2.97
2022-08-04T07:14:36.020Z,2.72
2022-08-04T07:17:09.385Z,3.05
2022-08-04T07:19:37.180Z,2.83
2022-08-04T07:22:25.381Z,2.95
2022-08-04T07:24:57.821Z,3.15
2022-08-04T07:27:48.743Z,3.63
2022-08-04T07:30:15.394Z,2.95
2022-08-04T07:32:47.602Z,2.90
2022-08-04T07:36:10.152Z,2.70
2022-08-04T07:38:26.510Z,3.15
2022-08-04T07:40:56.137Z,3.20
2022-08-04T07:43:23.907Z,3.55
2022-08-04T07:46:10.324Z,2.95
2022-08-04T07:48:46.503Z,3.15
2022-08-04T07:51:15.553Z,3.50
2022-08-04T07:53:54.065Z,3.50
2022-08-04T07:56:28.351Z,3.20
2022-08-04T07:58:56.214Z,2.80
2022-08-04T08:01:24.759Z,3.00
2022-08-04T08:03:55.029Z,3.38
2022-08-04T08:06:43.423Z,2.60
2022-08-04T08:09:15.164Z,2.85
2022-08-04T08:12:36.051Z,3.30
2022-08-04T08:14:38.460Z,2.72
2022-08-04T08:17:07.085Z,3.28
2022-08-04T08:19:35.472Z,2.72
2022-08-04T08:22:20.910Z,2.70
2022-08-04T08:24:48.256Z,2.35
2022-08-04T08:27:36.812Z,2.92
2022-08-04T08:30:06.713Z,2.80
2022-08-04T08:32:33.890Z,2.75
2022-08-04T08:35:04.053Z,2.67
2022-08-04T08:37:41.823Z,2.45
2022-08-04T08:40:15.774Z,2.70
2022-08-04T08:42:53.329Z,2.58
2022-08-04T08:45:43.421Z,2.88
2022-08-04T08:48:58.717Z,2.63
2022-08-04T08:51:56.137Z,2.47
2022-08-04T08:55:12.413Z,2.42
2022-08-04T08:58:00.928Z,2.58
2022-08-04T09:00:47.956Z,3.00
2022-08-04T09:06:13.008Z,2.30
2022-08-04T09:08:53.990Z,2.40
2022-08-04T09:11:50.123Z,2.50
2022-08-04T09:14:39.833Z,2.53
2022-08-04T09:17:27.221Z,2.63
2022-08-04T09:20:04.014Z,2.47
2022-08-04T09:22:49.941Z,2.15
2022-08-04T09:25:34.529Z,2.13
2022-08-04T09:28:50.917Z,2.45
2022-08-04T09:31:19.966Z,2.60
2022-08-04T09:33:58.936Z,2.58
2022-08-04T09:36:46.650Z,2.55
2022-08-04T09:39:37.207Z,2.20
2022-08-04T09:42:34.675Z,2.20
2022-08-04T09:45:26.183Z,2.38
2022-08-04T09:48:08.061Z,2.03
2022-08-04T09:50:50.010Z,2.28
2022-08-04T09:53:42.008Z,2.00
2022-08-04T09:56:28.137Z,2.08
2022-08-04T09:59:49.848Z,2.28
2022-08-04T10:02:26.677Z,2.45
2022-08-04T10:05:03.628Z,1.80
2022-08-04T10:08:16.636Z,2.13
2022-08-04T10:11:12.263Z,2.25
2022-08-04T10:13:51.852Z,2.22
2022-08-04T10:16:44.045Z,1.83
2022-08-04T10:19:35.217Z,1.92
2022-08-04T10:22:28.849Z,1.95
2022-08-04T10:26:03.101Z,2.10
2022-08-04T10:28:14.185Z,1.90
2022-08-04T10:31:00.809Z,1.80
2022-08-04T10:33:32.941Z,2.15
2022-08-04T10:36:04.603Z,1.73
2022-08-04T10:38:40.474Z,1.70
2022-08-04T10:41:39.882Z,1.80
2022-08-04T10:44:48.329Z,2.30
2022-08-04T10:47:43.872Z,2.30
2022-08-04T10:50:23.473Z,1.73
2022-08-04T10:53:05.784Z,1.63
2022-08-04T10:56:06.450Z,2.35
2022-08-04T10:58:48.714Z,2.45
2022-08-04T11:02:01.519Z,2.30
2022-08-04T11:04:49.832Z,1.95
2022-08-04T11:07:18.169Z,1.50
2022-08-04T11:09:46.538Z,1.70
2022-08-04T11:12:26.303Z,1.60
2022-08-04T11:15:01.271Z,1.60
2022-08-04T11:17:36.021Z,1.48
2022-08-04T11:20:33.999Z,1.60
2022-08-04T11:23:02.331Z,1.90
2022-08-04T11:25:48.482Z,1.95
2022-08-04T11:29:12.705Z,2.03
2022-08-04T11:31:48.449Z,2.33
2022-08-04T11:34:23.508Z,2.38
2022-08-04T11:37:28.707Z,2.00
2022-08-04T11:40:33.050Z,2.00
2022-08-04T11:43:09.852Z,1.95
2022-08-04T11:45:50.831Z,2.20
2022-08-04T11:48:25.757Z,1.90
2022-08-04T11:50:55.149Z,1.90
2022-08-04T11:53:26.214Z,1.98
2022-08-04T11:56:11.275Z,1.70
2022-08-04T11:58:39.856Z,2.40
2022-08-04T12:01:27.997Z,2.20
2022-08-04T12:04:23.731Z,2.28
2022-08-04T12:07:29.586Z,2.33
2022-08-04T12:10:41.823Z,2.30
2022-08-04T12:13:31.583Z,2.00
2022-08-04T12:16:13.955Z,2.20
2022-08-04T12:18:58.469Z,1.88
2022-08-04T12:21:39.189Z,2.10
2022-08-04T12:24:20.024Z,2.00
2022-08-04T12:27:16.850Z,1.60
2022-08-04T12:30:57.502Z,1.90
2022-08-04T12:33:12.814Z,1.92
2022-08-04T12:36:10.375Z,2.20
2022-08-04T12:39:06.548Z,2.30
2022-08-04T12:42:01.378Z,1.90
2022-08-04T12:44:53.945Z,2.03
2022-08-04T12:47:29.726Z,2.17
2022-08-04T12:50:03.956Z,2.00
2022-08-04T12:55:29.988Z,2.35
2022-08-04T12:57:58.488Z,1.88
2022-08-04T13:00:43.746Z,2.40
2022-08-04T13:03:14.724Z,3.17
2022-08-04T13:06:00.642Z,2.17
2022-08-04T13:08:28.385Z,2.70
2022-08-04T13:11:20.418Z,3.00
2022-08-04T13:14:10.944Z,2.38
2022-08-04T13:17:02.284Z,2.20
2022-08-04T13:19:31.376Z,2.40
2022-08-04T13:22:29.045Z,2.33
2022-08-04T13:26:40.624Z,2.45
2022-08-04T13:27:48.724Z,1.90
2022-08-04T13:30:25.809Z,2.88
2022-08-04T13:35:56.018Z,2.30
2022-08-04T13:38:31.926Z,2.30
2022-08-04T13:41:04.720Z,2.30
2022-08-04T13:44:19.628Z,2.15
2022-08-04T13:46:53.204Z,2.20
2022-08-04T13:50:00.880Z,2.17
2022-08-04T13:52:29.646Z,2.25
2022-08-04T13:55:36.299Z,2.55
2022-08-04T13:58:14.293Z,2.15
2022-08-04T14:01:09.754Z,2.22
2022-08-04T14:03:54.481Z,2.00
2022-08-04T14:06:49.381Z,2.25
2022-08-04T14:09:22.465Z,2.60
2022-08-04T14:12:46.490Z,2.30
2022-08-04T14:14:59.942Z,2.60
2022-08-04T14:17:30.529Z,2.22
2022-08-04T14:20:00.879Z,2.33
2022-08-04T14:22:28.212Z,2.20
2022-08-04T14:24:59.225Z,2.17
2022-08-04T14:27:47.992Z,2.17
2022-08-04T14:30:28.909Z,2.60
2022-08-04T14:34:01.090Z,2.33
2022-08-04T14:36:04.664Z,2.20
2022-08-04T14:39:00.441Z,2.30
2022-08-04T14:41:32.418Z,3.25
2022-08-04T14:44:02.952Z,2.33
2022-08-04T14:46:36.496Z,2.35
2022-08-04T14:49:10.478Z,2.05
2022-08-04T14:51:46.397Z,2.53
2022-08-04T14:54:34.557Z,2.50
2022-08-04T14:57:05.626Z,2.30
2022-08-04T15:00:01.635Z,2.40
2022-08-04T15:02:38.559Z,2.38
2022-08-04T15:06:02.507Z,2.38
2022-08-04T15:08:18.310Z,2.35
2022-08-04T15:11:03.872Z,2.22
2022-08-04T15:13:38.737Z,2.90
2022-08-04T15:16:08.359Z,2.55
2022-08-04T15:18:37.487Z,2.63
2022-08-04T15:21:05.588Z,2.72
2022-08-04T15:23:39.819Z,2.47
2022-08-04T15:26:15.426Z,2.47
2022-08-04T15:29:10.984Z,2.13
2022-08-04T15:32:05.739Z,2.30
2022-08-04T15:34:50.443Z,2.50
2022-08-04T15:37:31.108Z,2.42
2022-08-04T15:43:27.529Z,1.95
2022-08-04T15:46:43.903Z,2.28
2022-08-04T15:52:12.173Z,2.17
2022-08-04T15:54:52.617Z,2.08
2022-08-04T15:58:01.987Z,2.17
2022-08-04T16:00:49.592Z,2.45
2022-08-04T16:03:55.330Z,2.95
2022-08-04T16:06:27.477Z,2.55
2022-08-04T16:09:03.366Z,2.63
2022-08-04T16:11:40.524Z,2.03
2022-08-04T16:14:12.075Z,2.50
2022-08-04T16:16:42.213Z,2.88
2022-08-04T16:20:02.642Z,2.45
2022-08-04T16:22:39.439Z,2.85
2022-08-04T16:25:48.124Z,3.17
2022-08-04T16:28:34.378Z,2.90
2022-08-04T16:31:16.494Z,3.05
2022-08-04T16:33:46.910Z,2.65
2022-08-04T16:37:01.567Z,3.42
2022-08-04T16:42:36.396Z,2.60
2022-08-04T16:45:09.061Z,3.13
2022-08-04T16:47:48.456Z,3.20
2022-08-04T16:50:20.718Z,2.88
2022-08-04T16:52:55.598Z,2.47
2022-08-04T16:55:27.820Z,2.47
2022-08-04T16:57:58.769Z,2.80
2022-08-04T17:00:35.796Z,3.50
2022-08-04T17:03:21.357Z,3.08
2022-08-04T17:05:48.988Z,2.90
2022-08-04T17:08:35.495Z,2.70
2022-08-04T17:11:02.790Z,2.70
2022-08-04T17:14:01.769Z,3.00
2022-08-04T17:16:40.267Z,3.60
2022-08-04T17:19:25.283Z,3.20
2022-08-04T17:22:02.636Z,2.80
2022-08-04T17:24:33.550Z,2.85
2022-08-04T17:27:00.952Z,3.10
2022-08-04T17:29:46.560Z,2.90
2022-08-04T17:32:21.160Z,2.72
2022-08-04T17:35:07.685Z,2.72
2022-08-04T17:37:52.058Z,3.22
2022-08-04T17:44:05.241Z,3.20
2022-08-04T17:46:52.437Z,3.08
2022-08-04T17:49:24.816Z,2.70
2022-08-04T17:52:41.470Z,2.45
2022-08-04T17:55:16.304Z,2.83
2022-08-04T17:58:21.046Z,3.00
2022-08-04T18:01:16.388Z,2.95
2022-08-04T18:05:05.694Z,2.50
2022-08-04T18:08:39.364Z,2.72
2022-08-04T18:10:56.071Z,3.47
2022-08-04T18:13:26.011Z,2.80
2022-08-04T18:16:21.864Z,3.00
2022-08-04T18:19:10.174Z,3.03
2022-08-04T18:21:59.343Z,2.35
2022-08-04T18:24:34.536Z,2.58
2022-08-04T18:27:45.694Z,2.80
2022-08-04T18:30:38.222Z,2.65
2022-08-04T18:33:40.148Z,2.70
2022-08-04T18:36:33.182Z,2.65
2022-08-04T18:42:05.366Z,2.88
2022-08-04T18:44:52.144Z,2.87
2022-08-04T18:47:29.549Z,2.72
2022-08-04T18:51:00.985Z,3.13
2022-08-04T18:53:08.239Z,2.70
2022-08-04T18:55:56.519Z,3.42
2022-08-04T18:58:27.363Z,3.05
2022-08-04T19:01:04.161Z,3.38
2022-08-04T19:03:45.596Z,2.97
2022-08-04T19:06:33.277Z,3.35
2022-08-04T19:09:00.928Z,3.40
2022-08-04T19:11:54.592Z,2.90
2022-08-04T19:14:22.679Z,3.42
2022-08-04T19:16:49.983Z,3.03
2022-08-04T19:19:18.213Z,3.25
2022-08-04T19:22:00.575Z,3.38
2022-08-04T19:24:34.451Z,3.50
2022-08-04T19:27:08.355Z,2.83
2022-08-04T19:29:45.166Z,3.40
2022-08-04T19:32:31.908Z,3.13
2022-08-04T19:34:59.061Z,2.80
2022-08-04T19:38:01.211Z,3.17
2022-08-04T19:43:36.406Z,3.08
2022-08-04T19:46:17.705Z,3.08
2022-08-04T19:49:03.576Z,3.15
2022-08-04T19:51:38.922Z,2.42
2022-08-04T19:54:16.693Z,3.10
2022-08-04T19:56:51.282Z,2.60
2022-08-04T19:59:21.826Z,3.67
2022-08-04T20:01:56.317Z,3.13
2022-08-04T20:04:41.983Z,2.85
2022-08-04T20:07:14.295Z,2.50
2022-08-04T20:10:00.145Z,2.83
2022-08-04T20:12:33.016Z,2.90
2022-08-04T20:15:00.594Z,2.63
2022-08-04T20:18:08.210Z,2.28
2022-08-04T20:20:15.063Z,2.60
2022-08-04T20:22:52.553Z,3.00
2022-08-04T20:28:10.461Z,2.65
2022-08-04T20:31:11.214Z,3.08
2022-08-04T20:33:49.205Z,2.67
2022-08-04T20:36:41.280Z,2.70
2022-08-04T20:39:18.544Z,3.47
2022-08-04T20:42:07.260Z,2.60
2022-08-04T20:44:46.206Z,2.80
2022-08-04T20:47:21.225Z,2.72
2022-08-04T20:49:49.685Z,2.67
2022-08-04T20:52:20.720Z,2.67
2022-08-04T20:54:56.180Z,2.85
2022-08-04T20:57:48.393Z,3.10
2022-08-04T21:00:26.385Z,2.75
2022-08-04T21:03:15.510Z,2.60
2022-08-04T21:05:44.315Z,2.75
2022-08-04T21:08:30.233Z,3.28
2022-08-04T21:11:00.782Z,2.72
2022-08-04T21:13:51.964Z,2.90
2022-08-04T21:16:53.821Z,2.88
2022-08-04T21:19:15.221Z,3.60
2022-08-04T21:21:50.093Z,2.53
2022-08-04T21:24:26.313Z,2.83
2022-08-04T21:26:56.853Z,2.80
2022-08-04T21:29:42.412Z,3.00
2022-08-04T21:32:13.385Z,3.20
2022-08-04T21:35:00.390Z,2.83
2022-08-04T21:37:56.655Z,3.22
2022-08-04T21:40:38.791Z,3.65
2022-08-04T21:43:08.257Z,2.83
2022-08-04T21:45:36.237Z,2.70
2022-08-04T21:50:32.178Z,3.05
2022-08-04T21:53:03.064Z,3.03
2022-08-04T21:56:04.976Z,2.60
2022-08-04T21:58:38.476Z,3.05
2022-08-04T22:01:51.571Z,3.53
2022-08-04T22:04:25.781Z,3.13
2022-08-04T22:07:11.286Z,3.17
2022-08-04T22:09:41.618Z,3.15
2022-08-04T22:12:23.321Z,3.22
2022-08-04T22:14:57.596Z,3.45
2022-08-04T22:17:29.447Z,3.55
2022-08-04T22:20:04.330Z,3.38
2022-08-04T22:22:43.205Z,3.15
2022-08-04T22:25:18.512Z,2.67
2022-08-04T22:28:04.442Z,2.80
2022-08-04T22:30:37.556Z,3.30
2022-08-04T22:33:23.597Z,3.15
2022-08-04T22:36:13.061Z,2.10
2022-08-04T22:39:06.565Z,2.90
2022-08-04T22:41:48.300Z,2.42
2022-08-04T22:44:16.412Z,2.20
2022-08-04T22:46:43.713Z,2.35
2022-08-04T22:49:12.968Z,2.60
2022-08-04T22:51:50.624Z,2.78
2022-08-04T22:54:36.638Z,2.95
2022-08-04T22:57:03.834Z,3.13
2022-08-04T22:59:42.620Z,2.60
2022-08-04T23:02:10.396Z,3.25
2022-08-04T23:04:38.025Z,2.75
2022-08-04T23:07:09.489Z,3.33
2022-08-04T23:09:50.777Z,2.97
2022-08-04T23:12:27.280Z,3.10
2022-08-04T23:15:13.418Z,3.55
2022-08-04T23:17:43.816Z,3.88
2022-08-04T23:20:39.723Z,3.60
2022-08-04T23:23:12.296Z,3.10
2022-08-04T23:26:08.700Z,3.88
2022-08-04T23:28:38.457Z,3.13
2022-08-04T23:31:05.693Z,3.35
2022-08-04T23:33:50.460Z,3.33
2022-08-04T23:36:29.361Z,3.33
2022-08-04T23:39:03.897Z,3.10
2022-08-04T23:41:57.707Z,3.03
2022-08-04T23:44:26.629Z,2.72
2022-08-04T23:48:15.079Z,2.85
2022-08-04T23:50:05.629Z,2.47
2022-08-04T23:52:52.780Z,2.97
2022-08-04T23:55:21.300Z,3.10
2022-08-04T23:58:18.874Z,3.28
